createdAt,value
2017-09-13T00:00:01.128Z,2.90
2017-09-13T00:02:29.419Z,3.76
2017-09-13T00:04:57.693Z,3.94
2017-09-13T00:07:25.979Z,2.96
2017-09-13T00:09:54.300Z,2.88
2017-09-13T00:12:22.557Z,2.80
2017-09-13T00:14:50.844Z,2.44
2017-09-13T00:17:19.147Z,2.76
2017-09-13T00:19:47.421Z,3.24
2017-09-13T00:22:16.895Z,3.58
2017-09-13T00:24:46.133Z,2.80
2017-09-13T00:27:14.394Z,3.26
2017-09-13T00:29:42.699Z,3.30
2017-09-13T00:32:10.975Z,3.18
2017-09-13T00:34:39.243Z,3.20
2017-09-13T00:37:08.880Z,3.74
2017-09-13T00:39:38.068Z,3.88
2017-09-13T00:42:10.196Z,3.52
2017-09-13T00:44:38.451Z,3.36
2017-09-13T00:47:07.658Z,3.70
2017-09-13T00:49:35.960Z,3.38
2017-09-13T00:52:04.263Z,3.36
2017-09-13T00:54:32.551Z,3.58
2017-09-13T00:57:00.808Z,3.72
2017-09-13T00:59:29.094Z,3.20
2017-09-13T01:01:57.392Z,3.04
2017-09-13T01:04:25.644Z,3.24
2017-09-13T01:06:53.937Z,3.36
2017-09-13T01:09:22.182Z,3.30
2017-09-13T01:11:50.462Z,4.06
2017-09-13T01:14:18.737Z,3.90
2017-09-13T01:16:46.987Z,3.04
2017-09-13T01:19:16.583Z,3.70
2017-09-13T01:21:44.866Z,3.72
2017-09-13T01:24:13.120Z,3.58
2017-09-13T01:26:41.411Z,3.72
2017-09-13T01:29:09.676Z,3.22
2017-09-13T01:31:38.495Z,3.58
2017-09-13T01:34:07.847Z,3.44
2017-09-13T01:36:37.351Z,3.42
2017-09-13T01:39:05.634Z,3.82
2017-09-13T01:41:33.886Z,3.68
2017-09-13T01:44:02.127Z,3.84
2017-09-13T01:46:30.409Z,3.74
2017-09-13T01:48:58.663Z,3.40
2017-09-13T01:51:26.959Z,4.48
2017-09-13T01:53:55.228Z,4.06
2017-09-13T01:56:23.491Z,4.80
2017-09-13T01:58:51.775Z,3.54
2017-09-13T02:01:20.024Z,4.30
2017-09-13T02:03:48.307Z,4.22
2017-09-13T02:06:16.596Z,4.66
2017-09-13T02:08:44.733Z,4.94
2017-09-13T02:11:13.014Z,4.68
2017-09-13T02:13:41.295Z,3.94
2017-09-13T02:16:09.543Z,3.16
2017-09-13T02:18:38.690Z,4.14
2017-09-13T02:21:07.995Z,3.24
2017-09-13T02:23:36.943Z,4.18
2017-09-13T02:26:05.190Z,4.18
2017-09-13T02:28:33.473Z,4.00
2017-09-13T02:31:01.755Z,4.26
2017-09-13T02:33:29.994Z,4.66
2017-09-13T02:35:58.285Z,3.00
2017-09-13T02:38:26.535Z,4.02
2017-09-13T02:40:54.795Z,3.64
2017-09-13T02:43:23.089Z,3.64
2017-09-13T02:45:51.355Z,3.14
2017-09-13T02:48:19.620Z,3.90
2017-09-13T02:50:47.902Z,3.80
2017-09-13T02:53:16.192Z,3.96
2017-09-13T02:55:45.224Z,3.64
2017-09-13T02:58:13.512Z,3.92
2017-09-13T03:00:41.800Z,3.44
2017-09-13T03:03:10.082Z,3.78
2017-09-13T03:05:38.362Z,3.40
2017-09-13T03:08:08.562Z,3.22
2017-09-13T03:10:38.051Z,3.68
2017-09-13T03:13:06.339Z,4.44
2017-09-13T03:15:34.597Z,3.58
2017-09-13T03:18:02.891Z,3.96
2017-09-13T03:20:31.134Z,3.40
2017-09-13T03:22:59.387Z,4.56
2017-09-13T03:25:27.671Z,2.82
2017-09-13T03:27:55.938Z,4.10
2017-09-13T03:30:24.229Z,4.30
2017-09-13T03:32:52.490Z,4.64
2017-09-13T03:35:20.778Z,3.66
2017-09-13T03:37:49.028Z,5.30
2017-09-13T03:40:17.277Z,2.92
2017-09-13T03:42:46.222Z,3.30
2017-09-13T03:45:15.171Z,3.72
2017-09-13T03:47:43.434Z,3.22
2017-09-13T03:50:11.710Z,3.70
2017-09-13T03:52:39.950Z,3.70
2017-09-13T03:55:09.396Z,2.54
2017-09-13T03:57:38.902Z,3.40
2017-09-13T04:00:08.159Z,3.28
2017-09-13T04:02:36.406Z,3.60
2017-09-13T04:05:04.663Z,3.04
2017-09-13T04:07:32.951Z,2.80
2017-09-13T04:10:01.230Z,3.24
2017-09-13T04:12:29.504Z,2.86
2017-09-13T04:14:57.767Z,2.64
2017-09-13T04:17:26.060Z,3.34
2017-09-13T04:19:54.316Z,3.16
2017-09-13T04:22:22.599Z,2.36
2017-09-13T04:24:50.851Z,2.04
2017-09-13T04:27:19.135Z,2.24
2017-09-13T04:29:47.400Z,2.16
2017-09-13T04:32:16.610Z,1.90
2017-09-13T04:34:44.875Z,2.48
2017-09-13T04:37:13.116Z,1.84
2017-09-13T04:39:41.403Z,1.80
2017-09-13T04:42:09.650Z,2.48
2017-09-13T04:44:38.776Z,2.34
2017-09-13T04:47:07.899Z,2.60
2017-09-13T04:49:36.953Z,1.74
2017-09-13T04:52:05.194Z,1.68
2017-09-13T04:54:33.474Z,2.06
2017-09-13T04:57:01.736Z,1.60
2017-09-13T04:59:31.022Z,1.90
2017-09-13T05:01:59.311Z,2.00
2017-09-13T05:04:27.578Z,1.96
2017-09-13T05:06:55.867Z,1.78
2017-09-13T05:09:24.129Z,1.90
2017-09-13T05:11:52.381Z,1.76
2017-09-13T05:14:20.670Z,2.00
2017-09-13T05:16:48.927Z,1.50
2017-09-13T05:19:17.203Z,2.38
2017-09-13T05:21:46.916Z,1.60
2017-09-13T05:24:15.687Z,1.62
2017-09-13T05:26:44.754Z,1.50
2017-09-13T05:29:13.055Z,1.30
2017-09-13T05:31:41.354Z,1.58
2017-09-13T05:34:13.343Z,1.60
2017-09-13T05:36:41.598Z,1.50
2017-09-13T05:39:09.871Z,1.44
2017-09-13T05:41:38.994Z,1.60
2017-09-13T05:44:08.248Z,1.50
2017-09-13T05:46:36.504Z,1.48
2017-09-13T05:49:04.778Z,1.92
2017-09-13T05:51:33.059Z,1.98
2017-09-13T05:54:01.360Z,2.02
2017-09-13T05:56:29.611Z,1.56
2017-09-13T05:58:57.855Z,1.74
2017-09-13T06:01:26.141Z,1.62
2017-09-13T06:03:54.396Z,1.60
2017-09-13T06:06:22.686Z,1.76
2017-09-13T06:08:50.931Z,1.68
2017-09-13T06:11:19.174Z,1.96
2017-09-13T06:13:47.446Z,1.66
2017-09-13T06:16:16.413Z,2.16
2017-09-13T06:18:45.347Z,2.04
2017-09-13T06:21:13.625Z,2.30
2017-09-13T06:23:41.876Z,3.08
2017-09-13T06:26:10.175Z,2.38
2017-09-13T06:28:38.791Z,2.58
2017-09-13T06:31:07.640Z,2.06
2017-09-13T06:33:35.930Z,2.62
2017-09-13T06:36:04.187Z,3.18
2017-09-13T06:38:32.432Z,3.04
2017-09-13T06:41:00.719Z,2.68
2017-09-13T06:43:28.962Z,2.74
2017-09-13T06:45:57.243Z,2.68
2017-09-13T06:48:25.498Z,2.60
2017-09-13T06:50:53.795Z,3.32
2017-09-13T06:53:22.048Z,2.78
2017-09-13T06:55:50.302Z,3.22
2017-09-13T06:58:18.623Z,3.74
2017-09-13T07:00:46.893Z,3.20
2017-09-13T07:03:22.782Z,3.72
2017-09-13T07:05:51.071Z,3.74
2017-09-13T07:08:19.326Z,3.68
2017-09-13T07:10:47.582Z,4.16
2017-09-13T07:13:17.167Z,3.56
2017-09-13T07:15:46.581Z,5.10
2017-09-13T07:18:15.879Z,4.12
2017-09-13T07:20:44.624Z,4.44
2017-09-13T07:23:12.888Z,4.38
2017-09-13T07:25:41.159Z,4.34
2017-09-13T07:28:09.406Z,3.92
2017-09-13T07:30:38.832Z,3.62
2017-09-13T07:33:08.140Z,4.44
2017-09-13T07:35:36.406Z,3.76
2017-09-13T07:38:04.744Z,5.62
2017-09-13T07:40:33.012Z,6.82
2017-09-13T07:43:01.283Z,6.20
2017-09-13T07:45:29.559Z,5.70
2017-09-13T07:47:57.819Z,4.90
2017-09-13T07:50:26.121Z,4.58
2017-09-13T07:52:54.387Z,5.30
2017-09-13T07:55:22.650Z,5.68
2017-09-13T07:57:50.941Z,5.96
2017-09-13T08:00:19.244Z,5.30
2017-09-13T08:02:46.735Z,4.60
2017-09-13T08:05:21.468Z,5.06
2017-09-13T08:07:49.728Z,5.42
2017-09-13T08:10:18.020Z,4.48
2017-09-13T08:12:46.273Z,5.86
2017-09-13T08:15:14.590Z,5.22
2017-09-13T08:17:42.882Z,6.28
2017-09-13T08:20:11.135Z,5.26
2017-09-13T08:22:39.423Z,4.46
2017-09-13T08:25:08.787Z,5.24
2017-09-13T08:27:37.910Z,5.66
2017-09-13T08:30:06.816Z,4.80
2017-09-13T08:32:36.018Z,5.70
2017-09-13T08:35:04.304Z,5.14
2017-09-13T08:37:32.600Z,6.22
2017-09-13T08:40:00.882Z,5.92
2017-09-13T08:42:29.183Z,6.60
2017-09-13T08:44:58.281Z,5.34
2017-09-13T08:47:26.575Z,4.26
2017-09-13T08:49:54.840Z,4.84
2017-09-13T08:52:22.344Z,5.96
2017-09-13T08:54:50.627Z,5.82
2017-09-13T08:57:18.886Z,6.52
2017-09-13T08:59:47.208Z,5.96
2017-09-13T09:02:18.787Z,6.68
2017-09-13T09:04:47.075Z,4.46
2017-09-13T09:07:14.615Z,4.66
2017-09-13T09:09:42.891Z,5.56
2017-09-13T09:12:11.186Z,5.58
2017-09-13T09:14:39.453Z,5.88
2017-09-13T09:17:08.803Z,5.58
2017-09-13T09:19:38.121Z,5.70
2017-09-13T09:22:06.416Z,5.68
2017-09-13T09:24:34.695Z,4.90
2017-09-13T09:27:08.432Z,4.58
2017-09-13T09:29:35.930Z,4.78
2017-09-13T09:32:04.194Z,4.06
2017-09-13T09:34:32.474Z,6.02
2017-09-13T09:37:00.721Z,5.76
2017-09-13T09:39:29.019Z,4.76
2017-09-13T09:41:57.953Z,4.50
2017-09-13T09:44:26.309Z,5.14
2017-09-13T09:46:54.613Z,4.14
2017-09-13T09:49:22.889Z,4.54
2017-09-13T09:51:51.176Z,4.56
2017-09-13T09:54:19.501Z,7.26
2017-09-13T09:56:47.754Z,4.08
2017-09-13T09:59:17.063Z,6.18
2017-09-13T10:01:46.044Z,5.74
2017-09-13T10:04:15.332Z,4.52
2017-09-13T10:06:45.104Z,4.48
2017-09-13T10:09:13.407Z,4.10
2017-09-13T10:11:41.729Z,4.32
2017-09-13T10:14:10.004Z,5.60
2017-09-13T10:16:38.980Z,4.74
2017-09-13T10:19:07.240Z,6.76
2017-09-13T10:21:35.570Z,3.98
2017-09-13T10:24:03.855Z,4.52
2017-09-13T10:26:32.147Z,3.92
2017-09-13T10:29:00.452Z,4.80
2017-09-13T10:31:28.718Z,4.82
2017-09-13T10:33:57.025Z,6.70
2017-09-13T10:36:25.279Z,4.12
2017-09-13T10:38:53.531Z,4.32
2017-09-13T10:41:21.867Z,3.94
2017-09-13T10:43:50.131Z,2.92
2017-09-13T10:46:18.387Z,4.16
2017-09-13T10:48:46.686Z,3.40
2017-09-13T10:51:15.792Z,3.84
2017-09-13T10:53:44.580Z,4.68
2017-09-13T10:56:12.834Z,3.84
2017-09-13T10:58:41.091Z,4.10
2017-09-13T11:01:08.808Z,3.72
2017-09-13T11:03:37.651Z,3.88
2017-09-13T11:06:05.933Z,4.15
2017-09-13T11:08:34.223Z,3.06
2017-09-13T11:11:02.484Z,3.42
2017-09-13T11:13:30.771Z,3.00
2017-09-13T11:15:59.039Z,3.24
2017-09-13T11:18:27.333Z,3.30
2017-09-13T11:20:55.625Z,3.34
2017-09-13T11:23:23.894Z,2.92
2017-09-13T11:25:52.194Z,3.52
2017-09-13T11:28:20.461Z,3.06
2017-09-13T11:30:48.725Z,3.34
2017-09-13T11:33:17.025Z,2.64
2017-09-13T11:35:46.146Z,2.78
2017-09-13T11:38:15.356Z,2.90
2017-09-13T11:40:43.623Z,4.12
2017-09-13T11:43:11.973Z,3.20
2017-09-13T11:45:40.254Z,3.10
2017-09-13T11:48:08.500Z,2.20
2017-09-13T11:50:37.265Z,3.18
2017-09-13T11:53:05.527Z,3.40
2017-09-13T11:55:33.827Z,3.04
2017-09-13T11:58:02.080Z,2.54
2017-09-13T12:00:30.366Z,2.68
2017-09-13T12:02:58.646Z,3.60
2017-09-13T12:05:26.904Z,2.82
2017-09-13T12:07:55.195Z,2.58
2017-09-13T12:10:22.716Z,2.86
2017-09-13T12:12:50.962Z,3.08
2017-09-13T12:15:19.262Z,3.02
2017-09-13T12:17:47.529Z,3.24
2017-09-13T12:20:17.053Z,3.32
2017-09-13T12:22:46.714Z,3.28
2017-09-13T12:25:21.061Z,3.90
2017-09-13T12:27:49.321Z,2.98
2017-09-13T12:30:17.585Z,3.64
2017-09-13T12:32:47.077Z,3.58
2017-09-13T12:35:16.038Z,4.10
2017-09-13T12:37:44.321Z,3.80
2017-09-13T12:40:11.860Z,3.18
2017-09-13T12:42:40.120Z,3.20
2017-09-13T12:45:08.434Z,2.76
2017-09-13T12:47:37.662Z,3.12
2017-09-13T12:50:05.929Z,2.64
2017-09-13T12:52:34.240Z,2.48
2017-09-13T12:55:02.499Z,3.12
2017-09-13T12:57:30.797Z,2.20
2017-09-13T12:59:59.054Z,2.42
2017-09-13T13:02:27.348Z,2.80
2017-09-13T13:04:55.648Z,3.02
2017-09-13T13:07:23.910Z,2.42
2017-09-13T13:09:52.191Z,2.40
2017-09-13T13:12:21.343Z,2.52
2017-09-13T13:14:49.632Z,2.04
2017-09-13T13:17:17.886Z,2.44
2017-09-13T13:19:47.253Z,2.52
2017-09-13T13:22:16.435Z,2.48
2017-09-13T13:24:46.103Z,1.92
2017-09-13T13:27:15.531Z,2.32
2017-09-13T13:29:43.801Z,2.38
2017-09-13T13:32:16.741Z,2.32
2017-09-13T13:34:45.912Z,2.70
2017-09-13T13:37:14.735Z,2.90
2017-09-13T13:39:43.004Z,3.04
2017-09-13T13:42:11.314Z,2.56
2017-09-13T13:44:39.576Z,2.78
2017-09-13T13:47:09.192Z,3.02
2017-09-13T13:49:37.485Z,2.52
2017-09-13T13:52:05.791Z,2.84
2017-09-13T13:54:34.067Z,2.72
2017-09-13T13:57:02.335Z,2.80
2017-09-13T13:59:29.874Z,3.16
2017-09-13T14:01:58.145Z,2.46
2017-09-13T14:04:26.423Z,2.74
2017-09-13T14:06:54.715Z,4.24
2017-09-13T14:09:23.034Z,3.84
2017-09-13T14:11:51.382Z,2.32
2017-09-13T14:14:19.644Z,2.52
2017-09-13T14:16:47.941Z,3.68
2017-09-13T14:19:16.369Z,2.88
2017-09-13T14:21:45.505Z,2.36
2017-09-13T14:24:13.768Z,3.36
2017-09-13T14:26:42.027Z,3.16
2017-09-13T14:29:10.332Z,2.88
2017-09-13T14:31:38.623Z,3.54
2017-09-13T14:34:07.942Z,3.40
2017-09-13T14:36:36.886Z,2.60
2017-09-13T14:39:05.180Z,2.90
2017-09-13T14:41:33.440Z,2.40
2017-09-13T14:44:09.087Z,2.86
2017-09-13T14:46:37.342Z,2.72
2017-09-13T14:49:05.612Z,2.40
2017-09-13T14:51:33.912Z,2.96
2017-09-13T14:54:02.180Z,2.96
2017-09-13T14:56:30.587Z,2.96
2017-09-13T14:58:58.948Z,3.00
2017-09-13T15:01:27.244Z,2.98
2017-09-13T15:03:56.479Z,2.58
2017-09-13T15:06:24.812Z,3.20
2017-09-13T15:08:53.080Z,3.18
2017-09-13T15:11:21.398Z,3.38
2017-09-13T15:13:49.770Z,2.60
2017-09-13T15:16:18.357Z,3.50
2017-09-13T15:18:46.640Z,2.72
2017-09-13T15:21:15.826Z,2.46
2017-09-13T15:23:44.775Z,3.42
2017-09-13T15:26:13.054Z,2.68
2017-09-13T15:28:41.347Z,2.48
2017-09-13T15:31:09.695Z,4.68
2017-09-13T15:33:38.716Z,2.90
2017-09-13T15:36:08.479Z,3.26
2017-09-13T15:38:37.842Z,2.42
2017-09-13T15:41:06.913Z,2.90
2017-09-13T15:43:35.252Z,2.18
2017-09-13T15:46:03.616Z,4.84
2017-09-13T15:48:31.910Z,2.56
2017-09-13T15:51:00.943Z,3.84
2017-09-13T15:53:29.356Z,3.54
2017-09-13T15:55:57.623Z,2.90
2017-09-13T15:58:25.920Z,3.20
2017-09-13T16:00:55.012Z,3.08
2017-09-13T16:03:23.374Z,3.60
2017-09-13T16:05:51.659Z,3.32
2017-09-13T16:08:19.968Z,3.40
2017-09-13T16:10:48.277Z,3.32
2017-09-13T16:13:16.546Z,2.98
2017-09-13T16:15:46.140Z,3.70
2017-09-13T16:18:15.051Z,3.20
2017-09-13T16:20:43.362Z,2.94
2017-09-13T16:23:11.693Z,3.78
2017-09-13T16:25:39.964Z,3.10
2017-09-13T16:28:09.348Z,3.38
2017-09-13T16:30:38.943Z,3.70
2017-09-13T16:33:08.061Z,3.44
2017-09-13T16:35:36.378Z,2.90
2017-09-13T16:38:04.658Z,3.86
2017-09-13T16:40:36.423Z,3.72
2017-09-13T16:43:04.696Z,3.32
2017-09-13T16:45:32.998Z,3.02
2017-09-13T16:48:01.306Z,3.50
2017-09-13T16:50:28.864Z,2.82
2017-09-13T16:52:57.136Z,3.10
2017-09-13T16:55:25.418Z,3.10
2017-09-13T16:57:53.719Z,3.20
2017-09-13T17:00:22.020Z,3.82
2017-09-13T17:02:50.306Z,2.84
2017-09-13T17:05:18.571Z,2.70
2017-09-13T17:07:46.903Z,2.58
2017-09-13T17:10:15.169Z,2.65
2017-09-13T17:12:43.434Z,2.88
2017-09-13T17:15:11.748Z,2.68
2017-09-13T17:17:40.040Z,2.90
2017-09-13T17:20:08.995Z,2.46
2017-09-13T17:22:37.261Z,2.70
2017-09-13T17:25:05.524Z,3.00
2017-09-13T17:27:33.820Z,2.36
2017-09-13T17:30:01.311Z,2.40
2017-09-13T17:32:29.596Z,2.96
2017-09-13T17:34:57.861Z,3.30
2017-09-13T17:37:26.165Z,3.00
2017-09-13T17:39:54.452Z,2.96
2017-09-13T17:42:21.961Z,2.40
2017-09-13T17:44:50.260Z,2.78
2017-09-13T17:47:18.551Z,2.90
2017-09-13T17:49:46.860Z,3.28
2017-09-13T17:52:15.131Z,2.64
2017-09-13T17:54:43.438Z,2.42
2017-09-13T17:57:11.757Z,2.74
2017-09-13T17:59:40.017Z,3.42
2017-09-13T18:02:08.832Z,2.96
2017-09-13T18:04:38.060Z,2.74
2017-09-13T18:07:07.076Z,2.94
2017-09-13T18:09:35.405Z,2.58
2017-09-13T18:12:03.703Z,2.92
2017-09-13T18:14:31.992Z,3.22
2017-09-13T18:17:00.329Z,3.22
2017-09-13T18:19:28.601Z,2.88
2017-09-13T18:21:56.865Z,2.98
2017-09-13T18:24:25.177Z,2.78
2017-09-13T18:26:53.444Z,4.00
2017-09-13T18:29:21.756Z,2.80
2017-09-13T18:31:50.028Z,3.02
2017-09-13T18:34:18.301Z,2.96
2017-09-13T18:36:46.607Z,2.98
2017-09-13T18:39:15.494Z,3.00
2017-09-13T18:41:43.751Z,3.72
2017-09-13T18:44:12.040Z,2.90
2017-09-13T18:46:40.332Z,3.02
2017-09-13T18:49:08.642Z,3.22
2017-09-13T18:51:37.993Z,2.68
2017-09-13T18:54:08.117Z,2.74
2017-09-13T18:56:36.381Z,3.94
2017-09-13T18:59:04.647Z,2.50
2017-09-13T19:01:32.945Z,3.40
2017-09-13T19:04:01.213Z,2.78
2017-09-13T19:06:29.508Z,2.82
2017-09-13T19:08:57.791Z,2.94
2017-09-13T19:11:26.059Z,3.30
2017-09-13T19:13:54.374Z,3.12
2017-09-13T19:16:22.673Z,3.00
2017-09-13T19:18:50.967Z,2.92
2017-09-13T19:21:19.224Z,2.76
2017-09-13T19:23:47.722Z,2.98
2017-09-13T19:26:16.721Z,3.78
2017-09-13T19:28:46.016Z,3.70
2017-09-13T19:31:14.757Z,3.86
2017-09-13T19:33:43.019Z,3.46
2017-09-13T19:36:11.321Z,3.80
2017-09-13T19:38:38.827Z,4.06
2017-09-13T19:41:08.119Z,3.22
2017-09-13T19:43:36.832Z,3.96
2017-09-13T19:46:05.095Z,3.14
2017-09-13T19:48:33.355Z,3.28
2017-09-13T19:51:01.646Z,3.70
2017-09-13T19:53:29.917Z,3.08
2017-09-13T19:55:58.223Z,3.18
2017-09-13T19:58:26.489Z,3.06
2017-09-13T20:00:54.752Z,3.02
2017-09-13T20:03:23.046Z,3.00
2017-09-13T20:05:51.318Z,3.34
2017-09-13T20:08:19.621Z,3.36
2017-09-13T20:10:47.877Z,3.66
2017-09-13T20:13:16.909Z,4.06
2017-09-13T20:15:45.709Z,3.80
2017-09-13T20:18:14.030Z,3.84
2017-09-13T20:20:43.224Z,4.18
2017-09-13T20:23:11.515Z,3.40
2017-09-13T20:25:39.829Z,3.52
2017-09-13T20:28:08.919Z,4.06
2017-09-13T20:30:37.936Z,3.32
2017-09-13T20:33:05.500Z,3.52
2017-09-13T20:35:33.768Z,3.56
2017-09-13T20:38:02.059Z,2.84
2017-09-13T20:40:30.464Z,3.32
2017-09-13T20:42:58.740Z,3.10
2017-09-13T20:45:27.049Z,3.26
2017-09-13T20:47:58.947Z,3.70
2017-09-13T20:50:27.259Z,4.72
2017-09-13T20:52:55.511Z,4.82
2017-09-13T20:55:23.771Z,3.82
2017-09-13T20:57:52.083Z,3.96
2017-09-13T21:00:20.361Z,4.56
2017-09-13T21:02:48.652Z,3.88
2017-09-13T21:05:16.937Z,4.10
2017-09-13T21:07:45.277Z,3.62
2017-09-13T21:10:13.570Z,4.66
2017-09-13T21:12:41.856Z,4.22
2017-09-13T21:15:10.169Z,4.60
2017-09-13T21:17:38.424Z,4.72
2017-09-13T21:20:07.749Z,3.72
2017-09-13T21:22:36.052Z,6.30
2017-09-13T21:25:04.356Z,4.20
2017-09-13T21:27:32.681Z,3.94
2017-09-13T21:30:00.179Z,4.30
2017-09-13T21:32:28.436Z,5.34
2017-09-13T21:34:56.726Z,4.42
2017-09-13T21:37:24.996Z,5.18
2017-09-13T21:39:56.339Z,5.16
2017-09-13T21:42:24.595Z,5.36
2017-09-13T21:44:52.853Z,6.26
2017-09-13T21:47:21.145Z,5.00
2017-09-13T21:49:49.500Z,6.82
2017-09-13T21:52:17.785Z,4.92
2017-09-13T21:54:47.219Z,4.86
2017-09-13T21:57:16.849Z,5.50
2017-09-13T21:59:46.143Z,5.20
2017-09-13T22:02:14.917Z,5.30
2017-09-13T22:04:43.179Z,5.54
2017-09-13T22:07:11.436Z,4.86
2017-09-13T22:09:39.744Z,4.46
2017-09-13T22:14:48.911Z,3.68
2017-09-13T22:17:17.183Z,3.90
2017-09-13T22:19:45.441Z,3.82
2017-09-13T22:22:13.743Z,3.40
2017-09-13T22:24:42.022Z,4.70
2017-09-13T22:27:10.328Z,5.14
2017-09-13T22:29:38.592Z,5.22
2017-09-13T22:32:09.789Z,5.20
2017-09-13T22:34:39.235Z,4.68
2017-09-13T22:37:10.851Z,4.04
2017-09-13T22:39:39.116Z,3.86
2017-09-13T22:42:07.801Z,3.60
2017-09-13T22:44:36.833Z,4.12
2017-09-13T22:47:05.127Z,3.70
2017-09-13T22:49:33.384Z,3.72
2017-09-13T22:52:01.663Z,4.30
2017-09-13T22:54:29.923Z,3.88
2017-09-13T22:56:58.220Z,5.28
2017-09-13T22:59:26.479Z,4.30
2017-09-13T23:01:54.772Z,5.86
2017-09-13T23:04:23.031Z,6.46
2017-09-13T23:06:51.320Z,4.98
2017-09-13T23:09:19.603Z,4.60
2017-09-13T23:11:47.865Z,4.18
2017-09-13T23:14:17.238Z,3.76
2017-09-13T23:16:46.932Z,3.96
2017-09-13T23:19:15.330Z,4.10
2017-09-13T23:21:43.620Z,5.58
2017-09-13T23:24:11.898Z,4.18
2017-09-13T23:26:40.192Z,5.28
2017-09-13T23:29:08.482Z,5.26
2017-09-13T23:31:37.771Z,3.70
2017-09-13T23:34:06.943Z,4.22
2017-09-13T23:36:35.207Z,4.82
2017-09-13T23:39:03.500Z,4.18
2017-09-13T23:41:31.792Z,5.08
2017-09-13T23:44:00.061Z,4.72
2017-09-13T23:46:28.376Z,3.92
2017-09-13T23:48:56.663Z,4.74
2017-09-13T23:51:24.920Z,4.98
2017-09-13T23:53:53.215Z,4.90
2017-09-13T23:56:21.482Z,5.50
2017-09-13T23:58:49.781Z,4.48
